American Falls, ID

7:36 PM MDT on August 22, 2014 (GMT -0600)
RAWS CRYSTAL ID US | Change Station
CLOSE
Current Station
Personal Weather Station
Location: Aberdeen, ID
Elevation: 5055 ft
Nearby Weather Stations

Elev 5055 ft 42.99 °N, 113.18 °W | Updated 49 minutes ago

Mostly Cloudy
Mostly Cloudy
56 °F
Feels Like 56 °F
N
19
Wind Variable Wind from NNE
Gusts 25.0 mph

Today
High -- | Low -- °F
--% Chance of Precip.
Yesterday
High -- | Low -- °F
Precip. -- in
6:45 AM 8:22 PM
Waning Crescent, 6% visible
Pressure 29.92 in
Visibility 10.0 miles
Clouds Few 5500 ft
Mostly Cloudy 10000 ft
Dew Point 52 °F
Humidity 85%
Rainfall 0.20 in
Snow Depth Not available.
UV 1 out of 12
Pollen 7.10 out of 12
Air Quality Not available.
Flu Activity Not available.
METAR KPIH 230053Z 05005KT 10SM FEW055 BKN100 14/11 A3000 RMK AO2 WSHFT 2343 RAE10 TSE12 SLP132 P0002 T01390111

More Conditions Fewer Conditions

Pressure 29.92 in
Visibility 10.0 miles
Clouds Few 5500 ft
Mostly Cloudy 10000 ft
Dew Point 52 °F
Humidity 85%
Rainfall 0.20 in
Snow Depth Not available.
UV 1 out of 12
Pollen 7.10 out of 12
Air Quality Not available.
Flu Activity Not available.
METAR KPIH 230053Z 05005KT 10SM FEW055 BKN100 14/11 A3000 RMK AO2 WSHFT 2343 RAE10 TSE12 SLP132 P0002 T01390111

More Conditions Fewer Conditions

10-Day Weather Forecast

Almanac

Astronomy

Aug. 22, 2014 Rise Set
Actual Time 6:45 AM MDT 8:22 PM MDT
Civil Twilight 6:16 AM MDT 8:52 PM MDT
Nautical Twilight 5:39 AM MDT 9:28 PM MDT
Astronomical Twilight 5:01 AM MDT 10:07 PM MDT
Moon 4:10 AM MDT (8/22) 6:34 PM MDT (8/22)
Length of Visible Light 14h 36m
Length of Day
13h 36m
Tomorrow will be 2m 41s shorter.
Waning Crescent, 6% of the Moon is Illuminated
Today
Waning Crescent
Aug 25
New
Sep 2
First Quarter
Sep 8
Full
Sep 15
Last Quarter

Today's Extremes

State Highs State Lows

Community

WunderPhotos

Upload Photos

1,746,337 photos uploaded!

WunderBlogs® & News

Nearby

Air Quality

  Air Quality AQ Index Pollutant
Yesterday Good
PM10
Friday Good
PM2.5
Saturday Good
PM2.5
Sunday Good
PM2.5
Monday Good
PM2.5

Snow Depth

Station Depth Elevation
Wildhorse Divide 0 in 6490 ft
Oxford Spring 0 in 6740 ft
Sheep Mountain 0 in 6570 ft
Emigrant Summit 0 in 7390 ft
Swede Peak 0 in 7640 ft

Earthquake Activity

City Distance Mag. Time & Date
No recent earthquake activity has been reported nearby.
Minimum magnitude displayed is 2.5.

Coastal Water Temperatures

Place Temperature
No Stations Reporting

Nearby Weather Stations